createdAt,value
2018-05-04T00:00:48.796Z,7.93
2018-05-04T00:03:16.370Z,7.43
2018-05-04T00:05:43.938Z,7.43
2018-05-04T00:08:11.628Z,7.10
2018-05-04T00:10:39.288Z,6.40
2018-05-04T00:13:06.835Z,7.70
2018-05-04T00:15:34.396Z,6.00
2018-05-04T00:18:01.961Z,6.17
2018-05-04T00:20:29.558Z,6.50
2018-05-04T00:22:57.125Z,6.57
2018-05-04T00:25:24.769Z,7.07
2018-05-04T00:27:52.373Z,7.30
2018-05-04T00:30:19.932Z,7.63
2018-05-04T00:32:47.501Z,7.67
2018-05-04T00:35:15.056Z,6.40
2018-05-04T00:37:42.629Z,6.83
2018-05-04T00:40:10.209Z,6.43
2018-05-04T00:42:37.880Z,8.77
2018-05-04T00:45:05.433Z,6.20
2018-05-04T00:47:32.997Z,5.80
2018-05-04T00:50:00.564Z,8.10
2018-05-04T00:52:28.119Z,7.77
2018-05-04T00:54:55.689Z,6.93
2018-05-04T00:57:23.313Z,6.40
2018-05-04T00:59:50.885Z,6.63
2018-05-04T01:02:18.490Z,7.23
2018-05-04T01:04:46.101Z,7.03
2018-05-04T01:07:13.717Z,7.23
2018-05-04T01:09:41.345Z,7.43
2018-05-04T01:12:08.991Z,7.17
2018-05-04T01:14:36.620Z,6.97
2018-05-04T01:17:04.204Z,6.50
2018-05-04T01:19:31.765Z,6.60
2018-05-04T01:21:59.376Z,7.30
2018-05-04T01:24:26.941Z,7.00
2018-05-04T01:26:54.497Z,7.00
2018-05-04T01:29:22.129Z,7.10
2018-05-04T01:31:49.759Z,7.33
2018-05-04T01:34:17.328Z,7.83
2018-05-04T01:36:44.888Z,7.80
2018-05-04T01:39:12.541Z,7.43
2018-05-04T01:41:40.168Z,8.90
2018-05-04T01:44:07.785Z,6.80
2018-05-04T01:46:35.408Z,7.47
2018-05-04T01:49:02.968Z,7.57
2018-05-04T01:51:30.541Z,7.40
2018-05-04T01:53:58.102Z,8.00
2018-05-04T01:56:25.725Z,8.20
2018-05-04T01:58:53.345Z,7.57
2018-05-04T02:01:20.906Z,7.37
2018-05-04T02:03:48.479Z,8.70
2018-05-04T02:06:16.044Z,8.27
2018-05-04T02:08:43.675Z,8.77
2018-05-04T02:11:11.239Z,7.57
2018-05-04T02:13:38.857Z,6.60
2018-05-04T02:16:06.416Z,7.37
2018-05-04T02:18:33.977Z,7.70
2018-05-04T02:21:01.549Z,8.83
2018-05-04T02:23:29.169Z,7.40
2018-05-04T02:25:56.763Z,9.50
2018-05-04T02:28:24.333Z,7.77
2018-05-04T02:30:51.984Z,8.37
2018-05-04T02:33:19.606Z,6.73
2018-05-04T02:35:47.225Z,6.00
2018-05-04T02:38:14.801Z,8.17
2018-05-04T02:40:42.360Z,7.87
2018-05-04T02:43:09.977Z,7.43
2018-05-04T02:45:37.533Z,7.83
2018-05-04T02:48:05.146Z,7.70
2018-05-04T02:50:32.766Z,8.30
2018-05-04T02:53:00.389Z,8.50
2018-05-04T02:55:28.070Z,8.53
2018-05-04T02:57:55.613Z,9.13
2018-05-04T03:00:23.181Z,9.40
2018-05-04T03:02:50.768Z,8.33
2018-05-04T03:05:18.392Z,8.67
2018-05-04T03:07:45.949Z,7.60
2018-05-04T03:10:13.508Z,8.23
2018-05-04T03:12:41.146Z,8.83
2018-05-04T03:15:08.706Z,8.53
2018-05-04T03:17:36.276Z,8.90
2018-05-04T03:20:03.886Z,11.27
2018-05-04T03:22:31.578Z,10.17
2018-05-04T03:24:59.148Z,8.83
2018-05-04T03:27:26.769Z,9.30
2018-05-04T03:29:54.340Z,8.70
2018-05-04T03:32:21.904Z,8.67
2018-05-04T03:34:49.529Z,8.53
2018-05-04T03:37:17.088Z,7.17
2018-05-04T03:39:45.634Z,7.53
2018-05-04T03:42:13.193Z,8.50
2018-05-04T03:44:40.810Z,7.93
2018-05-04T03:47:08.409Z,9.67
2018-05-04T03:49:35.972Z,7.83
2018-05-04T03:52:03.543Z,8.77
2018-05-04T03:54:31.132Z,6.87
2018-05-04T03:57:10.641Z,6.90
2018-05-04T03:59:49.984Z,7.50
2018-05-04T04:02:29.548Z,7.50
2018-05-04T04:04:57.109Z,8.70
2018-05-04T04:07:24.738Z,9.00
2018-05-04T04:09:52.308Z,7.60
2018-05-04T04:12:19.872Z,8.40
2018-05-04T04:14:47.460Z,8.00
2018-05-04T04:17:15.021Z,8.50
2018-05-04T04:19:42.636Z,9.23
2018-05-04T04:22:10.221Z,8.00
2018-05-04T04:24:37.780Z,7.93
2018-05-04T04:27:05.348Z,7.70
2018-05-04T04:29:32.972Z,6.87
2018-05-04T04:32:00.616Z,6.57
2018-05-04T04:34:28.176Z,7.13
2018-05-04T04:36:55.741Z,7.83
2018-05-04T04:39:23.312Z,7.07
2018-05-04T04:41:50.937Z,7.77
2018-05-04T04:44:18.517Z,6.90
2018-05-04T04:46:46.133Z,6.77
2018-05-04T04:49:13.764Z,7.20
2018-05-04T04:51:43.627Z,7.67
2018-05-04T04:54:11.254Z,6.60
2018-05-04T04:56:44.967Z,7.40
2018-05-04T04:59:12.556Z,7.63
2018-05-04T05:01:40.232Z,8.33
2018-05-04T05:04:07.789Z,7.97
2018-05-04T05:06:35.348Z,7.73
2018-05-04T05:09:02.977Z,7.90
2018-05-04T05:11:30.604Z,7.33
2018-05-04T05:13:58.224Z,7.17
2018-05-04T05:16:25.856Z,7.40
2018-05-04T05:18:53.422Z,8.40
2018-05-04T05:21:20.996Z,7.30
2018-05-04T05:23:48.624Z,6.47
2018-05-04T05:26:16.217Z,6.13
2018-05-04T05:28:43.833Z,5.90
2018-05-04T05:31:11.445Z,6.63
2018-05-04T05:33:39.005Z,7.57
2018-05-04T05:36:06.568Z,8.20
2018-05-04T05:38:34.161Z,7.20
2018-05-04T05:41:01.724Z,7.27
2018-05-04T05:43:29.291Z,7.10
2018-05-04T05:45:56.881Z,7.20
2018-05-04T05:48:24.532Z,6.73
2018-05-04T05:50:52.157Z,7.43
2018-05-04T05:53:19.786Z,6.57
2018-05-04T05:55:47.413Z,6.13
2018-05-04T05:58:14.968Z,5.40
2018-05-04T06:00:42.547Z,5.47
2018-05-04T06:03:10.178Z,6.40
2018-05-04T06:05:37.795Z,5.83
2018-05-04T06:08:05.413Z,5.13
2018-05-04T06:10:33.010Z,5.10
2018-05-04T06:13:00.600Z,4.80
2018-05-04T06:15:28.217Z,6.30
2018-05-04T06:17:55.792Z,6.07
2018-05-04T06:20:23.444Z,5.53
2018-05-04T06:22:51.056Z,4.57
2018-05-04T06:25:18.616Z,5.43
2018-05-04T06:27:46.176Z,6.10
2018-05-04T06:30:13.743Z,5.10
2018-05-04T06:32:41.296Z,6.00
2018-05-04T06:35:08.928Z,5.43
2018-05-04T06:37:36.545Z,5.50
2018-05-04T06:40:04.274Z,6.47
2018-05-04T06:42:31.830Z,5.40
2018-05-04T06:44:59.463Z,4.97
2018-05-04T06:47:27.089Z,5.00
2018-05-04T06:49:54.656Z,5.47
2018-05-04T06:52:22.224Z,5.27
2018-05-04T06:54:49.800Z,4.57
2018-05-04T06:57:17.496Z,4.90
2018-05-04T06:59:45.048Z,5.43
2018-05-04T07:02:12.613Z,4.40
2018-05-04T07:04:40.185Z,4.80
2018-05-04T07:07:07.744Z,5.43
2018-05-04T07:09:35.312Z,5.23
2018-05-04T07:12:02.937Z,5.20
2018-05-04T07:14:30.553Z,5.30
2018-05-04T07:16:58.128Z,5.77
2018-05-04T07:19:25.686Z,6.20
2018-05-04T07:21:53.266Z,5.50
2018-05-04T07:24:20.828Z,6.37
2018-05-04T07:26:48.531Z,4.80
2018-05-04T07:29:16.084Z,4.90
2018-05-04T07:31:43.700Z,5.20
2018-05-04T07:34:11.323Z,6.03
2018-05-04T07:36:38.967Z,5.20
2018-05-04T07:39:06.533Z,4.73
2018-05-04T07:41:34.084Z,5.13
2018-05-04T07:44:01.676Z,5.53
2018-05-04T07:46:29.297Z,6.57
2018-05-04T07:48:56.900Z,5.50
2018-05-04T07:51:24.472Z,6.30
2018-05-04T07:53:55.027Z,5.63
2018-05-04T07:56:34.501Z,5.20
2018-05-04T07:59:02.063Z,5.80
2018-05-04T08:01:29.639Z,5.70
2018-05-04T08:03:57.196Z,5.83
2018-05-04T08:06:24.847Z,5.27
2018-05-04T08:08:52.484Z,4.87
2018-05-04T08:11:20.052Z,6.07
2018-05-04T08:13:47.677Z,5.10
2018-05-04T08:16:15.217Z,5.00
2018-05-04T08:18:42.878Z,4.67
2018-05-04T08:21:10.624Z,4.70
2018-05-04T08:23:38.289Z,4.80
2018-05-04T08:26:05.844Z,4.73
2018-05-04T08:28:33.497Z,5.03
2018-05-04T08:31:01.064Z,4.30
2018-05-04T08:33:28.678Z,5.03
2018-05-04T08:35:56.296Z,5.30
2018-05-04T08:38:23.949Z,4.00
2018-05-04T08:40:51.568Z,5.67
2018-05-04T08:43:19.129Z,4.17
2018-05-04T08:45:46.676Z,4.20
2018-05-04T08:48:14.255Z,4.77
2018-05-04T08:50:41.884Z,4.80
2018-05-04T08:53:09.505Z,4.60
2018-05-04T08:55:37.068Z,5.03
2018-05-04T08:58:04.759Z,5.30
2018-05-04T09:00:32.393Z,5.53
2018-05-04T09:03:00.010Z,5.90
2018-05-04T09:05:27.857Z,6.17
2018-05-04T09:07:55.255Z,6.40
2018-05-04T09:10:22.933Z,5.93
2018-05-04T09:12:50.627Z,5.70
2018-05-04T09:15:18.146Z,5.53
2018-05-04T09:17:45.773Z,5.10
2018-05-04T09:20:13.329Z,4.57
2018-05-04T09:22:40.946Z,5.37
2018-05-04T09:25:08.501Z,5.37
2018-05-04T09:27:36.117Z,4.67
2018-05-04T09:30:03.679Z,4.50
2018-05-04T09:32:31.308Z,5.70
2018-05-04T09:34:58.830Z,5.53
2018-05-04T09:37:26.426Z,6.13
2018-05-04T09:39:54.102Z,4.97
2018-05-04T09:42:21.664Z,4.77
2018-05-04T09:44:49.281Z,4.50
2018-05-04T09:47:16.845Z,3.30
2018-05-04T09:49:44.401Z,3.90
2018-05-04T09:52:12.016Z,3.63
2018-05-04T09:54:39.569Z,2.93
2018-05-04T09:57:07.139Z,3.10
2018-05-04T09:59:34.779Z,3.30
2018-05-04T10:02:02.351Z,2.90
2018-05-04T10:04:29.927Z,2.47
2018-05-04T10:06:57.561Z,2.47
2018-05-04T10:09:25.174Z,2.53
2018-05-04T10:11:52.788Z,2.57
2018-05-04T10:14:20.386Z,2.53
2018-05-04T10:16:47.952Z,3.30
2018-05-04T10:19:15.514Z,2.43
2018-05-04T10:21:43.138Z,3.30
2018-05-04T10:24:10.701Z,2.30
2018-05-04T10:26:38.325Z,2.80
2018-05-04T10:29:05.885Z,2.37
2018-05-04T10:31:33.520Z,2.70
2018-05-04T10:34:01.085Z,3.10
2018-05-04T10:36:28.644Z,2.40
2018-05-04T10:38:56.414Z,2.33
2018-05-04T10:41:23.807Z,1.90
2018-05-04T10:43:51.428Z,2.17
2018-05-04T10:46:18.971Z,2.00
2018-05-04T10:48:46.584Z,2.37
2018-05-04T10:51:14.157Z,2.08
2018-05-04T10:53:41.738Z,2.40
2018-05-04T10:56:09.328Z,2.10
2018-05-04T10:58:36.913Z,2.00
2018-05-04T11:01:04.595Z,2.05
2018-05-04T11:03:32.163Z,1.80
2018-05-04T11:05:59.726Z,1.92
2018-05-04T11:08:27.305Z,1.80
2018-05-04T11:10:54.929Z,2.20
2018-05-04T11:13:22.502Z,1.90
2018-05-04T11:15:50.064Z,1.90
2018-05-04T11:18:17.684Z,1.58
2018-05-04T11:20:45.255Z,1.60
2018-05-04T11:23:12.822Z,1.98
2018-05-04T11:25:40.422Z,1.50
2018-05-04T11:28:08.041Z,2.05
2018-05-04T11:30:35.673Z,1.87
2018-05-04T11:33:03.272Z,1.75
2018-05-04T11:35:30.925Z,1.40
2018-05-04T11:37:58.481Z,1.60
2018-05-04T11:40:26.056Z,3.53
2018-05-04T11:42:53.649Z,2.72
2018-05-04T11:45:21.208Z,1.55
2018-05-04T11:47:48.844Z,1.40
2018-05-04T11:50:16.404Z,2.62
2018-05-04T11:52:44.031Z,2.67
2018-05-04T11:55:11.713Z,2.25
2018-05-04T11:57:39.253Z,2.08
2018-05-04T12:00:06.798Z,1.87
2018-05-04T12:02:34.395Z,2.20
2018-05-04T12:05:01.965Z,1.70
2018-05-04T12:07:29.533Z,2.47
2018-05-04T12:09:57.225Z,2.20
2018-05-04T12:12:24.881Z,2.95
2018-05-04T12:14:52.436Z,2.35
2018-05-04T12:17:20.065Z,2.22
2018-05-04T12:19:47.675Z,3.55
2018-05-04T12:22:15.297Z,2.55
2018-05-04T12:24:42.917Z,2.80
2018-05-04T12:27:10.532Z,2.15
2018-05-04T12:29:38.088Z,1.98
2018-05-04T12:32:05.674Z,2.22
2018-05-04T12:34:33.240Z,2.40
2018-05-04T12:37:00.967Z,2.67
2018-05-04T12:39:28.521Z,2.37
2018-05-04T12:41:56.126Z,2.20
2018-05-04T12:44:23.748Z,3.62
2018-05-04T12:46:51.320Z,2.10
2018-05-04T12:49:18.876Z,2.37
2018-05-04T12:51:46.503Z,2.17
2018-05-04T12:54:14.124Z,2.00
2018-05-04T12:56:41.715Z,2.45
2018-05-04T12:59:09.334Z,2.28
2018-05-04T13:01:37.037Z,2.30
2018-05-04T13:04:04.625Z,2.33
2018-05-04T13:06:32.258Z,2.28
2018-05-04T13:08:59.825Z,2.10
2018-05-04T13:11:27.388Z,2.15
2018-05-04T13:13:55.042Z,2.30
2018-05-04T13:16:22.661Z,1.62
2018-05-04T13:18:51.208Z,1.63
2018-05-04T13:21:18.764Z,2.33
2018-05-04T13:23:46.393Z,2.07
2018-05-04T13:26:14.017Z,2.33
2018-05-04T13:28:41.588Z,3.72
2018-05-04T13:31:09.143Z,4.65
2018-05-04T13:33:36.697Z,3.55
2018-05-04T13:36:04.332Z,3.57
2018-05-04T13:38:31.909Z,4.20
2018-05-04T13:40:59.484Z,3.47
2018-05-04T13:43:27.096Z,4.37
2018-05-04T13:45:54.657Z,4.80
2018-05-04T13:48:22.293Z,3.30
2018-05-04T13:50:49.937Z,2.80
2018-05-04T13:53:17.628Z,3.20
2018-05-04T13:55:45.187Z,2.70
2018-05-04T13:58:12.804Z,2.93
2018-05-04T14:00:40.429Z,2.30
2018-05-04T14:03:08.017Z,2.60
2018-05-04T14:05:35.740Z,1.83
2018-05-04T14:08:03.297Z,2.10
2018-05-04T14:10:30.886Z,2.17
2018-05-04T14:12:58.451Z,2.27
2018-05-04T14:15:26.052Z,2.40
2018-05-04T14:17:53.613Z,2.40
2018-05-04T14:20:21.230Z,2.37
2018-05-04T14:22:48.789Z,2.77
2018-05-04T14:25:16.353Z,2.83
2018-05-04T14:27:43.960Z,3.03
2018-05-04T14:30:11.571Z,3.97
2018-05-04T14:32:39.180Z,2.60
2018-05-04T14:35:06.745Z,2.07
2018-05-04T14:37:34.370Z,2.30
2018-05-04T14:40:01.977Z,2.80
2018-05-04T14:42:29.576Z,2.37
2018-05-04T14:44:57.129Z,2.13
2018-05-04T14:47:24.842Z,2.50
2018-05-04T14:49:52.501Z,2.43
2018-05-04T14:52:20.057Z,2.70
2018-05-04T14:54:47.636Z,2.73
2018-05-04T14:57:15.204Z,3.20
2018-05-04T14:59:42.825Z,3.00
2018-05-04T15:02:10.376Z,2.90
2018-05-04T15:04:38.062Z,2.73
2018-05-04T15:07:05.681Z,2.20
2018-05-04T15:09:33.237Z,2.53
2018-05-04T15:12:00.932Z,2.27
2018-05-04T15:14:28.389Z,2.10
2018-05-04T15:16:56.070Z,2.47
2018-05-04T15:19:23.697Z,3.10
2018-05-04T15:21:51.304Z,2.83
2018-05-04T15:24:18.860Z,2.33
2018-05-04T15:26:46.412Z,2.80
2018-05-04T15:29:14.000Z,2.63
2018-05-04T15:31:41.541Z,2.43
2018-05-04T15:34:09.161Z,2.50
2018-05-04T15:36:36.716Z,2.53
2018-05-04T15:39:04.365Z,2.37
2018-05-04T15:41:31.936Z,1.90
2018-05-04T15:43:59.556Z,2.17
2018-05-04T15:46:27.170Z,2.30
2018-05-04T15:49:00.324Z,2.20
2018-05-04T15:51:33.462Z,2.43
2018-05-04T15:54:01.170Z,1.80
2018-05-04T15:56:28.741Z,1.80
2018-05-04T15:58:56.321Z,2.60
2018-05-04T16:01:23.955Z,2.63
2018-05-04T16:03:51.575Z,2.47
2018-05-04T16:06:19.160Z,2.73
2018-05-04T16:08:46.769Z,3.00
2018-05-04T16:11:14.339Z,2.20
2018-05-04T16:13:41.951Z,2.03
2018-05-04T16:16:09.501Z,1.80
2018-05-04T16:18:37.116Z,2.70
2018-05-04T16:21:04.751Z,2.10
2018-05-04T16:23:32.301Z,2.97
2018-05-04T16:25:59.956Z,2.60
2018-05-04T16:28:27.593Z,2.53
2018-05-04T16:30:55.165Z,3.40
2018-05-04T16:33:22.734Z,3.07
2018-05-04T16:35:50.312Z,2.67
2018-05-04T16:38:17.929Z,2.80
2018-05-04T16:40:45.491Z,2.97
2018-05-04T16:43:13.109Z,2.57
2018-05-04T16:45:40.735Z,2.17
2018-05-04T16:48:14.081Z,2.60
2018-05-04T16:50:41.673Z,2.83
2018-05-04T16:53:09.247Z,3.17
2018-05-04T16:55:36.904Z,2.50
2018-05-04T16:58:04.682Z,2.60
2018-05-04T17:00:32.365Z,2.60
2018-05-04T17:02:59.989Z,3.33
2018-05-04T17:05:27.557Z,2.97
2018-05-04T17:07:55.164Z,2.73
2018-05-04T17:10:22.804Z,3.23
2018-05-04T17:12:50.425Z,3.70
2018-05-04T17:15:18.081Z,2.97
2018-05-04T17:17:45.709Z,2.70
2018-05-04T17:20:13.264Z,3.10
2018-05-04T17:22:40.825Z,2.70
2018-05-04T17:25:08.433Z,2.67
2018-05-04T17:27:36.039Z,2.70
2018-05-04T17:30:03.614Z,2.37
2018-05-04T17:32:31.229Z,2.87
2018-05-04T17:34:58.792Z,2.77
2018-05-04T17:37:26.355Z,2.90
2018-05-04T17:39:53.981Z,2.40
2018-05-04T17:42:21.642Z,2.80
2018-05-04T17:44:49.271Z,2.80
2018-05-04T17:47:16.912Z,2.13
2018-05-04T17:49:44.428Z,2.87
2018-05-04T17:52:12.033Z,3.00
2018-05-04T17:54:39.658Z,3.20
2018-05-04T17:57:07.210Z,3.10
2018-05-04T17:59:34.773Z,2.70
2018-05-04T18:02:02.425Z,4.30
2018-05-04T18:04:29.984Z,3.60
2018-05-04T18:06:57.617Z,3.37
2018-05-04T18:09:25.276Z,3.93
2018-05-04T18:11:52.881Z,4.70
2018-05-04T18:14:20.497Z,3.80
2018-05-04T18:16:48.122Z,4.27
2018-05-04T18:19:15.744Z,4.13
2018-05-04T18:21:43.382Z,3.83
2018-05-04T18:24:11.016Z,4.77
2018-05-04T18:26:38.592Z,4.20
2018-05-04T18:29:06.212Z,4.27
2018-05-04T18:31:33.847Z,3.53
2018-05-04T18:34:01.466Z,4.17
2018-05-04T18:36:29.039Z,4.43
2018-05-04T18:38:56.617Z,5.40
2018-05-04T18:41:24.180Z,4.93
2018-05-04T18:43:51.799Z,4.30
2018-05-04T18:46:19.355Z,4.87
2018-05-04T18:48:46.931Z,3.80
2018-05-04T18:51:14.509Z,3.63
2018-05-04T18:53:42.129Z,2.97
2018-05-04T18:56:09.721Z,2.70
2018-05-04T18:58:37.316Z,2.60
2018-05-04T19:01:04.881Z,2.27
2018-05-04T19:03:32.509Z,2.77
2018-05-04T19:06:00.122Z,3.07
2018-05-04T19:08:27.738Z,2.63
2018-05-04T19:10:55.360Z,3.50
2018-05-04T19:13:22.929Z,2.30
2018-05-04T19:15:50.507Z,2.47
2018-05-04T19:18:18.083Z,2.87
2018-05-04T19:20:45.769Z,2.90
2018-05-04T19:23:13.385Z,3.07
2018-05-04T19:25:40.961Z,2.30
2018-05-04T19:28:08.601Z,3.87
2018-05-04T19:30:36.189Z,2.97
2018-05-04T19:33:03.812Z,2.60
2018-05-04T19:35:31.437Z,2.90
2018-05-04T19:37:58.999Z,3.13
2018-05-04T19:40:26.630Z,2.93
2018-05-04T19:42:54.202Z,2.33
2018-05-04T19:45:21.825Z,2.60
2018-05-04T19:47:49.449Z,2.33
2018-05-04T19:50:17.005Z,1.83
2018-05-04T19:52:44.582Z,2.40
2018-05-04T19:55:12.198Z,2.33
2018-05-04T19:57:39.877Z,3.60
2018-05-04T20:00:07.508Z,3.00
2018-05-04T20:02:35.064Z,3.07
2018-05-04T20:05:02.748Z,2.73
2018-05-04T20:07:30.373Z,3.80
2018-05-04T20:09:57.936Z,3.27
2018-05-04T20:12:25.512Z,2.97
2018-05-04T20:14:53.209Z,4.20
2018-05-04T20:17:20.783Z,3.80
2018-05-04T20:19:48.357Z,4.23
2018-05-04T20:22:15.989Z,4.97
2018-05-04T20:24:43.595Z,4.93
2018-05-04T20:27:11.228Z,5.03
2018-05-04T20:29:38.913Z,6.23
2018-05-04T20:32:06.479Z,5.10
2018-05-04T20:34:34.050Z,4.27
2018-05-04T20:37:01.680Z,4.10
2018-05-04T20:39:29.318Z,4.00
2018-05-04T20:41:56.963Z,3.57
2018-05-04T20:44:24.592Z,2.90
2018-05-04T20:46:52.227Z,2.87
2018-05-04T20:49:19.805Z,2.90
2018-05-04T20:51:47.374Z,3.27
2018-05-04T20:54:14.976Z,3.33
2018-05-04T20:56:42.536Z,3.30
2018-05-04T20:59:10.165Z,3.30
2018-05-04T21:01:37.721Z,3.17
2018-05-04T21:04:05.342Z,3.30
2018-05-04T21:06:32.919Z,3.77
2018-05-04T21:09:00.480Z,2.73
2018-05-04T21:11:28.089Z,3.57
2018-05-04T21:13:55.719Z,3.50
2018-05-04T21:16:23.413Z,3.30
2018-05-04T21:18:50.972Z,3.47
2018-05-04T21:21:18.533Z,3.43
2018-05-04T21:23:46.157Z,3.43
2018-05-04T21:26:13.773Z,3.50
2018-05-04T21:28:41.454Z,2.83
2018-05-04T21:31:09.134Z,2.80
2018-05-04T21:33:36.757Z,3.20
2018-05-04T21:36:04.308Z,3.37
2018-05-04T21:38:31.915Z,2.60
2018-05-04T21:40:59.544Z,2.80
2018-05-04T21:43:27.217Z,3.30
2018-05-04T21:45:54.786Z,3.50
2018-05-04T21:48:22.344Z,3.80
2018-05-04T21:50:49.976Z,2.73
2018-05-04T21:53:17.532Z,2.53
2018-05-04T21:55:45.136Z,3.07
2018-05-04T21:58:12.681Z,2.70
2018-05-04T22:00:40.244Z,3.70
2018-05-04T22:03:07.834Z,3.13
2018-05-04T22:05:35.471Z,3.47
2018-05-04T22:08:14.530Z,2.70
2018-05-04T22:10:42.080Z,2.77
2018-05-04T22:13:09.640Z,3.07
2018-05-04T22:15:37.296Z,2.53
2018-05-04T22:18:04.856Z,3.33
2018-05-04T22:20:32.445Z,3.50
2018-05-04T22:23:00.070Z,3.63
2018-05-04T22:25:27.742Z,3.20
2018-05-04T22:27:55.371Z,3.50
2018-05-04T22:30:22.960Z,3.30
2018-05-04T22:32:50.522Z,2.73
2018-05-04T22:35:18.159Z,3.47
2018-05-04T22:37:45.791Z,2.93
2018-05-04T22:40:13.422Z,4.30
2018-05-04T22:42:41.076Z,3.00
2018-05-04T22:45:08.674Z,3.20
2018-05-04T22:47:36.233Z,2.93
2018-05-04T22:50:03.920Z,3.10
2018-05-04T22:52:31.557Z,3.53
2018-05-04T22:54:59.181Z,4.10
2018-05-04T22:57:26.736Z,3.33
2018-05-04T22:59:54.408Z,2.90
2018-05-04T23:02:21.986Z,3.13
2018-05-04T23:04:49.550Z,3.00
2018-05-04T23:07:17.123Z,3.73
2018-05-04T23:09:44.745Z,2.77
2018-05-04T23:12:12.312Z,3.00
2018-05-04T23:14:39.876Z,3.30
2018-05-04T23:17:07.498Z,2.77
2018-05-04T23:19:35.060Z,2.47
2018-05-04T23:22:02.631Z,3.73
2018-05-04T23:24:30.204Z,2.67
2018-05-04T23:26:57.825Z,3.80
2018-05-04T23:29:25.378Z,3.00
2018-05-04T23:31:53.007Z,3.20
2018-05-04T23:34:20.645Z,3.07
2018-05-04T23:36:48.222Z,2.90
2018-05-04T23:39:15.799Z,2.60
2018-05-04T23:41:43.364Z,2.90
2018-05-04T23:44:10.920Z,3.10
2018-05-04T23:46:38.550Z,3.60
2018-05-04T23:49:06.115Z,2.80
2018-05-04T23:51:33.728Z,3.57
2018-05-04T23:54:01.284Z,2.83
2018-05-04T23:56:28.905Z,3.40
2018-05-04T23:58:56.477Z,3.10
